sensor_id;sensor_type;location;lat;lon;timestamp;pressure;altitude;pressure_sealevel;temperature;humidity
59337;BME280;45115;52.002;4.686;2022-07-29T00:01:20;101805.81;;;15.70;76.29
59337;BME280;45115;52.002;4.686;2022-07-29T00:03:47;101806.66;;;15.65;76.11
59337;BME280;45115;52.002;4.686;2022-07-29T00:06:14;101808.28;;;15.61;76.49
59337;BME280;45115;52.002;4.686;2022-07-29T00:08:41;101806.16;;;15.58;76.69
59337;BME280;45115;52.002;4.686;2022-07-29T00:11:07;101798.38;;;15.61;77.15
59337;BME280;45115;52.002;4.686;2022-07-29T00:13:35;101798.72;;;15.54;77.26
59337;BME280;45115;52.002;4.686;2022-07-29T00:16:02;101795.69;;;15.61;77.01
59337;BME280;45115;52.002;4.686;2022-07-29T00:18:29;101793.59;;;15.58;76.97
59337;BME280;45115;52.002;4.686;2022-07-29T00:20:55;101790.38;;;15.56;77.33
59337;BME280;45115;52.002;4.686;2022-07-29T00:23:22;101791.22;;;15.51;77.39
59337;BME280;45115;52.002;4.686;2022-07-29T00:25:49;101788.28;;;15.53;77.55
59337;BME280;45115;52.002;4.686;2022-07-29T00:28:15;101783.19;;;15.57;77.28
59337;BME280;45115;52.002;4.686;2022-07-29T00:30:43;101792.59;;;15.49;78.17
59337;BME280;45115;52.002;4.686;2022-07-29T00:33:10;101786.22;;;15.39;78.23
59337;BME280;45115;52.002;4.686;2022-07-29T00:35:36;101777.34;;;15.49;77.88
59337;BME280;45115;52.002;4.686;2022-07-29T00:38:12;101774.38;;;15.51;77.65
59337;BME280;45115;52.002;4.686;2022-07-29T00:40:40;101782.13;;;15.52;77.48
59337;BME280;45115;52.002;4.686;2022-07-29T00:43:07;101768.28;;;15.45;77.75
59337;BME280;45115;52.002;4.686;2022-07-29T00:45:34;101780.56;;;15.46;77.97
59337;BME280;45115;52.002;4.686;2022-07-29T00:48:02;101777.13;;;15.40;77.54
59337;BME280;45115;52.002;4.686;2022-07-29T00:50:30;101774.16;;;15.42;77.77
59337;BME280;45115;52.002;4.686;2022-07-29T00:52:58;101769.41;;;15.39;78.41
59337;BME280;45115;52.002;4.686;2022-07-29T00:55:25;101771.75;;;15.40;78.23
59337;BME280;45115;52.002;4.686;2022-07-29T00:57:52;101774.78;;;15.34;78.48
59337;BME280;45115;52.002;4.686;2022-07-29T01:00:21;101773.66;;;15.40;78.86
59337;BME280;45115;52.002;4.686;2022-07-29T01:02:48;101774.81;;;15.28;78.57
59337;BME280;45115;52.002;4.686;2022-07-29T01:05:19;101767.56;;;15.29;78.88
59337;BME280;45115;52.002;4.686;2022-07-29T01:07:48;101766.50;;;15.25;79.36
59337;BME280;45115;52.002;4.686;2022-07-29T01:10:16;101763.91;;;15.20;79.48
59337;BME280;45115;52.002;4.686;2022-07-29T01:12:46;101769.00;;;15.11;79.71
59337;BME280;45115;52.002;4.686;2022-07-29T01:15:14;101763.38;;;15.12;79.88
59337;BME280;45115;52.002;4.686;2022-07-29T01:17:44;101762.88;;;15.10;79.54
59337;BME280;45115;52.002;4.686;2022-07-29T01:20:18;101763.38;;;15.12;80.15
59337;BME280;45115;52.002;4.686;2022-07-29T01:23:05;101759.34;;;15.15;79.84
59337;BME280;45115;52.002;4.686;2022-07-29T01:25:59;101760.72;;;15.07;80.30
59337;BME280;45115;52.002;4.686;2022-07-29T01:28:45;101764.25;;;15.03;80.18
59337;BME280;45115;52.002;4.686;2022-07-29T01:31:18;101764.53;;;14.96;81.24
59337;BME280;45115;52.002;4.686;2022-07-29T01:33:46;101758.88;;;15.08;80.63
59337;BME280;45115;52.002;4.686;2022-07-29T01:36:21;101763.69;;;15.06;80.82
59337;BME280;45115;52.002;4.686;2022-07-29T01:38:58;101753.31;;;14.99;80.98
59337;BME280;45115;52.002;4.686;2022-07-29T01:41:28;101759.44;;;14.99;80.84
59337;BME280;45115;52.002;4.686;2022-07-29T01:44:01;101759.41;;;15.05;80.31
59337;BME280;45115;52.002;4.686;2022-07-29T01:46:32;101759.16;;;15.01;80.74
59337;BME280;45115;52.002;4.686;2022-07-29T01:49:06;101748.78;;;14.94;81.08
59337;BME280;45115;52.002;4.686;2022-07-29T01:51:40;101753.56;;;15.03;80.74
59337;BME280;45115;52.002;4.686;2022-07-29T01:54:13;101754.91;;;15.00;80.76
59337;BME280;45115;52.002;4.686;2022-07-29T01:56:42;101755.38;;;15.07;80.32
59337;BME280;45115;52.002;4.686;2022-07-29T01:59:11;101750.63;;;14.99;80.66
59337;BME280;45115;52.002;4.686;2022-07-29T02:01:39;101739.13;;;14.98;80.97
59337;BME280;45115;52.002;4.686;2022-07-29T02:04:07;101745.84;;;14.91;81.08
59337;BME280;45115;52.002;4.686;2022-07-29T02:06:38;101747.22;;;14.88;81.72
59337;BME280;45115;52.002;4.686;2022-07-29T02:09:05;101752.25;;;14.95;81.71
59337;BME280;45115;52.002;4.686;2022-07-29T02:11:33;101741.03;;;14.93;81.75
59337;BME280;45115;52.002;4.686;2022-07-29T02:14:02;101739.97;;;14.94;81.10
59337;BME280;45115;52.002;4.686;2022-07-29T02:16:33;101737.59;;;14.87;81.63
59337;BME280;45115;52.002;4.686;2022-07-29T02:19:02;101732.75;;;14.89;81.36
59337;BME280;45115;52.002;4.686;2022-07-29T02:21:31;101742.97;;;14.82;81.67
59337;BME280;45115;52.002;4.686;2022-07-29T02:23:59;101737.00;;;14.95;81.25
59337;BME280;45115;52.002;4.686;2022-07-29T02:26:27;101734.34;;;14.95;80.42
59337;BME280;45115;52.002;4.686;2022-07-29T02:28:57;101738.31;;;14.98;80.88
59337;BME280;45115;52.002;4.686;2022-07-29T02:31:26;101733.81;;;14.93;81.37
59337;BME280;45115;52.002;4.686;2022-07-29T02:33:57;101736.53;;;14.88;81.33
59337;BME280;45115;52.002;4.686;2022-07-29T02:36:24;101733.59;;;14.84;81.69
59337;BME280;45115;52.002;4.686;2022-07-29T02:38:52;101732.28;;;14.77;81.87
59337;BME280;45115;52.002;4.686;2022-07-29T02:41:24;101734.16;;;14.71;81.99
59337;BME280;45115;52.002;4.686;2022-07-29T02:43:54;101728.34;;;14.58;82.96
59337;BME280;45115;52.002;4.686;2022-07-29T02:46:27;101725.09;;;14.61;83.18
59337;BME280;45115;52.002;4.686;2022-07-29T02:48:59;101718.66;;;14.73;82.63
59337;BME280;45115;52.002;4.686;2022-07-29T02:51:32;101725.06;;;14.67;82.61
59337;BME280;45115;52.002;4.686;2022-07-29T02:54:01;101720.56;;;14.67;82.40
59337;BME280;45115;52.002;4.686;2022-07-29T02:56:33;101729.88;;;14.70;82.51
59337;BME280;45115;52.002;4.686;2022-07-29T02:59:04;101729.38;;;14.63;83.04
59337;BME280;45115;52.002;4.686;2022-07-29T03:01:34;101720.34;;;14.53;83.33
59337;BME280;45115;52.002;4.686;2022-07-29T03:04:04;101721.94;;;14.54;83.46
59337;BME280;45115;52.002;4.686;2022-07-29T03:06:32;101727.88;;;14.41;84.12
59337;BME280;45115;52.002;4.686;2022-07-29T03:09:01;101724.34;;;14.51;83.80
59337;BME280;45115;52.002;4.686;2022-07-29T03:11:29;101731.28;;;14.57;82.98
59337;BME280;45115;52.002;4.686;2022-07-29T03:13:56;101732.06;;;14.57;83.16
59337;BME280;45115;52.002;4.686;2022-07-29T03:16:23;101728.88;;;14.55;83.84
59337;BME280;45115;52.002;4.686;2022-07-29T03:18:50;101717.09;;;14.56;83.46
59337;BME280;45115;52.002;4.686;2022-07-29T03:21:19;101713.94;;;14.49;83.39
59337;BME280;45115;52.002;4.686;2022-07-29T03:23:46;101716.34;;;14.51;83.30
59337;BME280;45115;52.002;4.686;2022-07-29T03:26:12;101704.53;;;14.62;83.00
59337;BME280;45115;52.002;4.686;2022-07-29T03:28:39;101712.56;;;14.57;83.17
59337;BME280;45115;52.002;4.686;2022-07-29T03:31:05;101711.25;;;14.54;83.34
59337;BME280;45115;52.002;4.686;2022-07-29T03:33:32;101706.72;;;14.55;83.71
59337;BME280;45115;52.002;4.686;2022-07-29T03:35:59;101702.72;;;14.57;83.23
59337;BME280;45115;52.002;4.686;2022-07-29T03:38:30;101708.59;;;14.54;83.63
59337;BME280;45115;52.002;4.686;2022-07-29T03:41:03;101711.50;;;14.53;82.61
59337;BME280;45115;52.002;4.686;2022-07-29T03:43:32;101704.34;;;14.43;83.49
59337;BME280;45115;52.002;4.686;2022-07-29T03:46:02;101704.13;;;14.29;83.81
59337;BME280;45115;52.002;4.686;2022-07-29T03:48:33;101715.06;;;14.32;84.00
59337;BME280;45115;52.002;4.686;2022-07-29T03:51:00;101704.88;;;14.40;83.45
59337;BME280;45115;52.002;4.686;2022-07-29T03:53:29;101704.91;;;14.34;83.59
59337;BME280;45115;52.002;4.686;2022-07-29T03:55:59;101699.84;;;14.33;83.74
59337;BME280;45115;52.002;4.686;2022-07-29T03:58:27;101703.31;;;14.28;84.23
59337;BME280;45115;52.002;4.686;2022-07-29T04:00:54;101704.13;;;14.29;83.79
59337;BME280;45115;52.002;4.686;2022-07-29T04:03:21;101706.81;;;14.24;84.04
59337;BME280;45115;52.002;4.686;2022-07-29T04:05:58;101707.09;;;14.12;84.81
59337;BME280;45115;52.002;4.686;2022-07-29T04:08:24;101707.59;;;14.24;84.74
59337;BME280;45115;52.002;4.686;2022-07-29T04:10:52;101707.88;;;14.28;84.06
59337;BME280;45115;52.002;4.686;2022-07-29T04:13:20;101712.38;;;14.38;83.54
59337;BME280;45115;52.002;4.686;2022-07-29T04:15:46;101715.28;;;14.41;83.07
59337;BME280;45115;52.002;4.686;2022-07-29T04:18:13;101713.72;;;14.35;83.50
59337;BME280;45115;52.002;4.686;2022-07-29T04:20:40;101714.78;;;14.34;83.52
59337;BME280;45115;52.002;4.686;2022-07-29T04:23:06;101721.44;;;14.47;83.24
59337;BME280;45115;52.002;4.686;2022-07-29T04:25:36;101713.72;;;14.35;82.95
59337;BME280;45115;52.002;4.686;2022-07-29T04:28:05;101713.97;;;14.33;83.70
59337;BME280;45115;52.002;4.686;2022-07-29T04:30:33;101712.91;;;14.34;83.24
59337;BME280;45115;52.002;4.686;2022-07-29T04:33:01;101718.25;;;14.29;83.32
59337;BME280;45115;52.002;4.686;2022-07-29T04:35:28;101713.19;;;14.33;82.75
59337;BME280;45115;52.002;4.686;2022-07-29T04:37:55;101718.78;;;14.37;82.42
59337;BME280;45115;52.002;4.686;2022-07-29T04:40:21;101713.97;;;14.39;81.82
59337;BME280;45115;52.002;4.686;2022-07-29T04:42:48;101713.72;;;14.30;81.65
59337;BME280;45115;52.002;4.686;2022-07-29T04:45:16;101722.25;;;14.32;82.38
59337;BME280;45115;52.002;4.686;2022-07-29T04:47:43;101718.50;;;14.43;81.48
59337;BME280;45115;52.002;4.686;2022-07-29T04:50:10;101725.44;;;14.44;81.37
59337;BME280;45115;52.002;4.686;2022-07-29T04:52:40;101719.31;;;14.39;81.54
59337;BME280;45115;52.002;4.686;2022-07-29T04:55:07;101718.78;;;14.37;81.44
59337;BME280;45115;52.002;4.686;2022-07-29T04:57:34;101714.22;;;14.42;81.34
59337;BME280;45115;52.002;4.686;2022-07-29T05:00:01;101703.53;;;14.42;81.63
59337;BME280;45115;52.002;4.686;2022-07-29T05:02:29;101710.41;;;14.59;81.47
59337;BME280;45115;52.002;4.686;2022-07-29T05:04:56;101703.72;;;14.67;80.79
59337;BME280;45115;52.002;4.686;2022-07-29T05:07:22;101706.38;;;14.67;80.69
59337;BME280;45115;52.002;4.686;2022-07-29T05:09:49;101711.44;;;14.73;80.54
59337;BME280;45115;52.002;4.686;2022-07-29T05:12:16;101710.91;;;14.82;80.31
59337;BME280;45115;52.002;4.686;2022-07-29T05:14:45;101711.97;;;14.86;80.34
59337;BME280;45115;52.002;4.686;2022-07-29T05:17:12;101719.13;;;14.96;79.22
59337;BME280;45115;52.002;4.686;2022-07-29T05:19:39;101715.34;;;14.97;79.63
59337;BME280;45115;52.002;4.686;2022-07-29T05:22:06;101716.72;;;14.94;79.65
59337;BME280;45115;52.002;4.686;2022-07-29T05:24:33;101718.59;;;14.94;80.20
59337;BME280;45115;52.002;4.686;2022-07-29T05:26:59;101719.94;;;14.96;80.32
59337;BME280;45115;52.002;4.686;2022-07-29T05:29:26;101722.03;;;14.99;80.05
59337;BME280;45115;52.002;4.686;2022-07-29T05:31:53;101715.56;;;15.06;79.38
59337;BME280;45115;52.002;4.686;2022-07-29T05:34:19;101724.34;;;15.17;78.58
59337;BME280;45115;52.002;4.686;2022-07-29T05:36:47;101730.41;;;15.27;78.11
59337;BME280;45115;52.002;4.686;2022-07-29T05:39:15;101730.31;;;15.43;78.09
59337;BME280;45115;52.002;4.686;2022-07-29T05:41:41;101727.50;;;15.59;77.21
59337;BME280;45115;52.002;4.686;2022-07-29T05:44:08;101742.56;;;15.84;76.65
59337;BME280;45115;52.002;4.686;2022-07-29T05:46:35;101739.25;;;15.98;75.26
59337;BME280;45115;52.002;4.686;2022-07-29T05:49:01;101739.88;;;16.19;74.13
59337;BME280;45115;52.002;4.686;2022-07-29T05:51:28;101739.53;;;16.26;73.44
59337;BME280;45115;52.002;4.686;2022-07-29T05:53:57;101734.81;;;17.10;71.25
59337;BME280;45115;52.002;4.686;2022-07-29T05:56:24;101733.44;;;17.79;68.07
59337;BME280;45115;52.002;4.686;2022-07-29T05:58:51;101739.47;;;18.88;63.53
59337;BME280;45115;52.002;4.686;2022-07-29T06:01:18;101744.91;;;19.79;60.85
59337;BME280;45115;52.002;4.686;2022-07-29T06:03:45;101757.59;;;20.60;57.43
59337;BME280;45115;52.002;4.686;2022-07-29T06:06:12;101758.28;;;21.72;55.53
59337;BME280;45115;52.002;4.686;2022-07-29T06:08:38;101766.97;;;21.95;51.88
59337;BME280;45115;52.002;4.686;2022-07-29T06:11:06;101761.38;;;22.39;51.15
59337;BME280;45115;52.002;4.686;2022-07-29T06:13:33;101756.84;;;22.52;49.95
59337;BME280;45115;52.002;4.686;2022-07-29T06:16:00;101764.94;;;23.04;48.96
59337;BME280;45115;52.002;4.686;2022-07-29T06:18:27;101757.59;;;22.62;49.14
59337;BME280;45115;52.002;4.686;2022-07-29T06:20:54;101753.84;;;21.76;51.31
59337;BME280;45115;52.002;4.686;2022-07-29T06:23:21;101755.44;;;22.07;52.22
59337;BME280;45115;52.002;4.686;2022-07-29T06:25:48;101760.19;;;21.62;51.70
59337;BME280;45115;52.002;4.686;2022-07-29T06:28:16;101759.75;;;21.16;52.90
59337;BME280;45115;52.002;4.686;2022-07-29T06:30:42;101761.03;;;21.19;52.67
59337;BME280;45115;52.002;4.686;2022-07-29T06:33:09;101761.41;;;20.50;54.85
59337;BME280;45115;52.002;4.686;2022-07-29T06:35:35;101767.69;;;19.73;56.98
59337;BME280;45115;52.002;4.686;2022-07-29T06:38:04;101755.56;;;19.94;57.58
59337;BME280;45115;52.002;4.686;2022-07-29T06:40:31;101763.78;;;19.88;58.19
59337;BME280;45115;52.002;4.686;2022-07-29T06:43:16;101763.09;;;19.97;57.34
59337;BME280;45115;52.002;4.686;2022-07-29T06:45:43;101761.22;;;20.06;56.63
59337;BME280;45115;52.002;4.686;2022-07-29T06:48:09;101766.03;;;19.95;57.51
59337;BME280;45115;52.002;4.686;2022-07-29T06:50:36;101770.28;;;20.10;56.20
59337;BME280;45115;52.002;4.686;2022-07-29T06:53:03;101777.56;;;20.50;56.50
59337;BME280;45115;52.002;4.686;2022-07-29T06:55:29;101774.06;;;20.09;57.38
59337;BME280;45115;52.002;4.686;2022-07-29T06:57:56;101766.59;;;19.51;58.97
59337;BME280;45115;52.002;4.686;2022-07-29T07:00:24;101769.53;;;18.90;61.25
59337;BME280;45115;52.002;4.686;2022-07-29T07:02:51;101768.63;;;18.95;62.30
59337;BME280;45115;52.002;4.686;2022-07-29T07:05:17;101774.88;;;19.18;62.54
59337;BME280;45115;52.002;4.686;2022-07-29T07:07:44;101779.56;;;18.98;62.19
59337;BME280;45115;52.002;4.686;2022-07-29T07:10:11;101772.22;;;19.04;62.22
59337;BME280;45115;52.002;4.686;2022-07-29T07:12:37;101787.06;;;20.48;59.12
59337;BME280;45115;52.002;4.686;2022-07-29T07:15:05;101788.00;;;21.28;56.21
59337;BME280;45115;52.002;4.686;2022-07-29T07:17:33;101792.22;;;20.76;57.17
59337;BME280;45115;52.002;4.686;2022-07-29T07:20:00;101790.34;;;20.36;58.31
59337;BME280;45115;52.002;4.686;2022-07-29T07:22:26;101796.56;;;20.45;58.06
59337;BME280;45115;52.002;4.686;2022-07-29T07:24:53;101797.03;;;20.38;58.41
59337;BME280;45115;52.002;4.686;2022-07-29T07:27:20;101801.88;;;20.77;57.89
59337;BME280;45115;52.002;4.686;2022-07-29T07:29:46;101799.28;;;20.54;57.37
59337;BME280;45115;52.002;4.686;2022-07-29T07:32:13;101805.00;;;20.61;57.57
59337;BME280;45115;52.002;4.686;2022-07-29T07:34:42;101799.06;;;20.91;57.33
59337;BME280;45115;52.002;4.686;2022-07-29T07:37:09;101797.03;;;20.88;56.54
59337;BME280;45115;52.002;4.686;2022-07-29T07:39:36;101800.13;;;20.63;56.51
59337;BME280;45115;52.002;4.686;2022-07-29T07:42:02;101807.72;;;20.61;56.54
59337;BME280;45115;52.002;4.686;2022-07-29T07:44:29;101801.41;;;20.66;57.29
59337;BME280;45115;52.002;4.686;2022-07-29T07:46:56;101791.19;;;21.21;56.18
59337;BME280;45115;52.002;4.686;2022-07-29T07:49:23;101796.19;;;21.93;54.44
59337;BME280;45115;52.002;4.686;2022-07-29T07:51:50;101806.69;;;21.95;52.73
59337;BME280;45115;52.002;4.686;2022-07-29T07:54:17;101797.22;;;21.71;53.50
59337;BME280;45115;52.002;4.686;2022-07-29T07:56:44;101796.81;;;21.99;52.53
59337;BME280;45115;52.002;4.686;2022-07-29T07:59:11;101797.00;;;21.67;54.03
59337;BME280;45115;52.002;4.686;2022-07-29T08:01:37;101795.78;;;21.73;55.10
59337;BME280;45115;52.002;4.686;2022-07-29T08:04:04;101794.34;;;21.41;54.07
59337;BME280;45115;52.002;4.686;2022-07-29T08:06:31;101788.00;;;21.63;53.92
59337;BME280;45115;52.002;4.686;2022-07-29T08:09:01;101774.28;;;21.86;53.12
59337;BME280;45115;52.002;4.686;2022-07-29T08:11:28;101787.00;;;21.85;53.44
59337;BME280;45115;52.002;4.686;2022-07-29T08:13:55;101786.56;;;21.66;54.17
59337;BME280;45115;52.002;4.686;2022-07-29T08:16:21;101787.16;;;21.80;54.13
59337;BME280;45115;52.002;4.686;2022-07-29T08:18:51;101785.13;;;21.68;54.58
59337;BME280;45115;52.002;4.686;2022-07-29T08:21:23;101786.41;;;21.71;53.87
59337;BME280;45115;52.002;4.686;2022-07-29T08:23:50;101785.22;;;21.98;53.53
59337;BME280;45115;52.002;4.686;2022-07-29T08:26:20;101790.59;;;22.55;53.73
59337;BME280;45115;52.002;4.686;2022-07-29T08:28:48;101791.78;;;22.66;52.76
59337;BME280;45115;52.002;4.686;2022-07-29T08:31:16;101793.50;;;23.56;50.36
59337;BME280;45115;52.002;4.686;2022-07-29T08:33:44;101798.16;;;24.64;47.25
59337;BME280;45115;52.002;4.686;2022-07-29T08:36:10;101802.09;;;24.54;46.67
59337;BME280;45115;52.002;4.686;2022-07-29T08:38:38;101806.84;;;24.58;45.73
59337;BME280;45115;52.002;4.686;2022-07-29T08:41:05;101811.28;;;25.16;44.75
59337;BME280;45115;52.002;4.686;2022-07-29T08:43:33;101811.00;;;25.62;44.75
59337;BME280;45115;52.002;4.686;2022-07-29T08:46:02;101808.94;;;26.04;42.19
59337;BME280;45115;52.002;4.686;2022-07-29T08:48:29;101811.19;;;26.18;41.90
59337;BME280;45115;52.002;4.686;2022-07-29T08:50:56;101805.66;;;26.46;40.97
59337;BME280;45115;52.002;4.686;2022-07-29T08:53:26;101817.09;;;27.27;38.87
59337;BME280;45115;52.002;4.686;2022-07-29T08:55:53;101807.59;;;26.98;39.03
59337;BME280;45115;52.002;4.686;2022-07-29T08:58:20;101806.78;;;27.17;39.67
59337;BME280;45115;52.002;4.686;2022-07-29T09:00:51;101806.03;;;26.80;38.96
59337;BME280;45115;52.002;4.686;2022-07-29T09:03:19;101806.78;;;26.81;40.50
59337;BME280;45115;52.002;4.686;2022-07-29T09:05:46;101802.50;;;26.80;39.73
59337;BME280;45115;52.002;4.686;2022-07-29T09:08:14;101802.09;;;26.26;40.38
59337;BME280;45115;52.002;4.686;2022-07-29T09:10:41;101804.47;;;24.19;44.17
59337;BME280;45115;52.002;4.686;2022-07-29T09:13:08;101794.66;;;24.14;45.77
59337;BME280;45115;52.002;4.686;2022-07-29T09:15:34;101787.00;;;23.36;48.06
59337;BME280;45115;52.002;4.686;2022-07-29T09:18:02;101798.66;;;23.49;49.44
59337;BME280;45115;52.002;4.686;2022-07-29T09:20:29;101799.13;;;23.08;50.05
59337;BME280;45115;52.002;4.686;2022-07-29T09:23:16;101795.38;;;23.22;49.53
59337;BME280;45115;52.002;4.686;2022-07-29T09:25:43;101793.19;;;23.15;49.90
59337;BME280;45115;52.002;4.686;2022-07-29T09:28:10;101788.66;;;24.08;49.22
59337;BME280;45115;52.002;4.686;2022-07-29T09:30:49;101784.09;;;23.87;48.09
59337;BME280;45115;52.002;4.686;2022-07-29T09:33:18;101788.44;;;23.55;50.16
59337;BME280;45115;52.002;4.686;2022-07-29T09:35:44;101788.75;;;23.53;50.62
59337;BME280;45115;52.002;4.686;2022-07-29T09:38:12;101790.41;;;23.92;49.62
59337;BME280;45115;52.002;4.686;2022-07-29T09:40:39;101796.31;;;24.81;47.42
59337;BME280;45115;52.002;4.686;2022-07-29T09:43:11;101803.28;;;25.64;46.82
59337;BME280;45115;52.002;4.686;2022-07-29T09:45:38;101795.28;;;24.98;46.64
59337;BME280;45115;52.002;4.686;2022-07-29T09:48:14;101798.94;;;25.18;46.40
59337;BME280;45115;52.002;4.686;2022-07-29T09:50:43;101806.50;;;25.25;45.97
59337;BME280;45115;52.002;4.686;2022-07-29T09:53:10;101793.75;;;24.47;49.29
59337;BME280;45115;52.002;4.686;2022-07-29T09:55:48;101800.84;;;25.18;48.31
59337;BME280;45115;52.002;4.686;2022-07-29T09:58:15;101791.91;;;25.74;45.15
59337;BME280;45115;52.002;4.686;2022-07-29T10:00:43;101799.75;;;25.19;46.06
59337;BME280;45115;52.002;4.686;2022-07-29T10:03:10;101799.25;;;25.29;45.25
59337;BME280;45115;52.002;4.686;2022-07-29T10:05:38;101791.44;;;24.99;45.89
59337;BME280;45115;52.002;4.686;2022-07-29T10:08:07;101793.75;;;25.13;46.66
59337;BME280;45115;52.002;4.686;2022-07-29T10:10:35;101793.25;;;25.24;47.47
59337;BME280;45115;52.002;4.686;2022-07-29T10:13:04;101789.09;;;24.60;48.64
59337;BME280;45115;52.002;4.686;2022-07-29T10:15:33;101784.59;;;24.52;48.74
59337;BME280;45115;52.002;4.686;2022-07-29T10:18:02;101789.19;;;24.89;47.73
59337;BME280;45115;52.002;4.686;2022-07-29T10:20:30;101785.94;;;24.71;47.64
59337;BME280;45115;52.002;4.686;2022-07-29T10:22:56;101796.00;;;24.58;47.35
59337;BME280;45115;52.002;4.686;2022-07-29T10:25:25;101794.56;;;24.23;49.98
59337;BME280;45115;52.002;4.686;2022-07-29T10:27:53;101788.91;;;24.53;47.66
59337;BME280;45115;52.002;4.686;2022-07-29T10:30:21;101786.31;;;24.19;48.36
59337;BME280;45115;52.002;4.686;2022-07-29T10:33:08;101799.75;;;24.53;44.84
59337;BME280;45115;52.002;4.686;2022-07-29T10:35:47;101795.69;;;24.34;46.85
59337;BME280;45115;52.002;4.686;2022-07-29T10:38:30;101791.16;;;24.38;45.85
59337;BME280;45115;52.002;4.686;2022-07-29T10:41:11;101791.38;;;24.58;46.50
59337;BME280;45115;52.002;4.686;2022-07-29T10:43:58;101788.16;;;24.81;46.17
59337;BME280;45115;52.002;4.686;2022-07-29T10:46:26;101790.81;;;24.52;47.03
59337;BME280;45115;52.002;4.686;2022-07-29T10:49:07;101783.59;;;24.32;49.47
59337;BME280;45115;52.002;4.686;2022-07-29T10:51:54;101778.81;;;24.53;46.70
59337;BME280;45115;52.002;4.686;2022-07-29T10:54:39;101774.50;;;24.65;46.07
59337;BME280;45115;52.002;4.686;2022-07-29T10:57:14;101784.94;;;24.38;46.06
59337;BME280;45115;52.002;4.686;2022-07-29T10:59:41;101777.31;;;24.81;46.18
59337;BME280;45115;52.002;4.686;2022-07-29T11:02:43;101773.00;;;24.92;47.23
59337;BME280;45115;52.002;4.686;2022-07-29T11:05:11;101776.28;;;24.86;48.24
59337;BME280;45115;52.002;4.686;2022-07-29T11:07:40;101779.91;;;25.02;44.23
59337;BME280;45115;52.002;4.686;2022-07-29T11:10:21;101774.31;;;25.11;44.84
59337;BME280;45115;52.002;4.686;2022-07-29T11:12:49;101774.81;;;25.29;45.33
59337;BME280;45115;52.002;4.686;2022-07-29T11:15:18;101764.31;;;25.15;45.57
59337;BME280;45115;52.002;4.686;2022-07-29T11:18:08;101768.16;;;25.43;44.08
59337;BME280;45115;52.002;4.686;2022-07-29T11:20:37;101770.63;;;25.48;43.41
59337;BME280;45115;52.002;4.686;2022-07-29T11:23:18;101756.47;;;25.26;43.89
59337;BME280;45115;52.002;4.686;2022-07-29T11:25:45;101773.31;;;25.60;43.88
59337;BME280;45115;52.002;4.686;2022-07-29T11:28:17;101770.34;;;25.82;44.25
59337;BME280;45115;52.002;4.686;2022-07-29T11:30:50;101769.22;;;25.99;44.54
59337;BME280;45115;52.002;4.686;2022-07-29T11:33:29;101764.28;;;25.89;41.26
59337;BME280;45115;52.002;4.686;2022-07-29T11:36:10;101764.91;;;25.82;42.16
59337;BME280;45115;52.002;4.686;2022-07-29T11:38:37;101768.91;;;26.20;42.46
59337;BME280;45115;52.002;4.686;2022-07-29T11:41:20;101773.75;;;26.27;43.44
59337;BME280;45115;52.002;4.686;2022-07-29T11:43:49;101772.44;;;26.37;43.10
59337;BME280;45115;52.002;4.686;2022-07-29T11:46:22;101773.75;;;26.63;42.56
59337;BME280;45115;52.002;4.686;2022-07-29T11:49:06;101774.97;;;26.30;43.88
59337;BME280;45115;52.002;4.686;2022-07-29T11:51:34;101765.69;;;25.98;43.75
59337;BME280;45115;52.002;4.686;2022-07-29T11:54:01;101770.16;;;26.07;43.58
59337;BME280;45115;52.002;4.686;2022-07-29T11:56:31;101770.63;;;25.93;42.40
59337;BME280;45115;52.002;4.686;2022-07-29T11:59:06;101772.53;;;25.76;42.39
59337;BME280;45115;52.002;4.686;2022-07-29T12:01:34;101777.34;;;26.31;39.37
59337;BME280;45115;52.002;4.686;2022-07-29T12:04:04;101776.28;;;26.20;38.84
59337;BME280;45115;52.002;4.686;2022-07-29T12:06:32;101769.34;;;26.74;40.52
59337;BME280;45115;52.002;4.686;2022-07-29T12:08:58;101775.91;;;26.53;40.84
59337;BME280;45115;52.002;4.686;2022-07-29T12:11:25;101777.63;;;26.26;40.00
59337;BME280;45115;52.002;4.686;2022-07-29T12:13:52;101778.22;;;26.19;41.03
59337;BME280;45115;52.002;4.686;2022-07-29T12:16:20;101779.81;;;26.92;40.06
59337;BME280;45115;52.002;4.686;2022-07-29T12:18:55;101788.00;;;27.55;37.05
59337;BME280;45115;52.002;4.686;2022-07-29T12:21:21;101786.91;;;27.36;38.10
59337;BME280;45115;52.002;4.686;2022-07-29T12:23:52;101785.63;;;27.10;36.71
59337;BME280;45115;52.002;4.686;2022-07-29T12:26:20;101787.38;;;26.83;37.99
59337;BME280;45115;52.002;4.686;2022-07-29T12:28:46;101784.56;;;27.15;36.10
59337;BME280;45115;52.002;4.686;2022-07-29T12:31:13;101787.94;;;27.51;36.23
59337;BME280;45115;52.002;4.686;2022-07-29T12:33:42;101779.97;;;28.09;35.73
59337;BME280;45115;52.002;4.686;2022-07-29T12:36:17;101778.53;;;27.92;34.79
59337;BME280;45115;52.002;4.686;2022-07-29T12:38:44;101780.97;;;27.74;36.61
59337;BME280;45115;52.002;4.686;2022-07-29T12:41:12;101774.47;;;28.05;37.26
59337;BME280;45115;52.002;4.686;2022-07-29T12:43:51;101773.91;;;27.96;36.16
59337;BME280;45115;52.002;4.686;2022-07-29T12:46:18;101783.38;;;28.02;36.31
59337;BME280;45115;52.002;4.686;2022-07-29T12:48:50;101773.47;;;27.24;37.32
59337;BME280;45115;52.002;4.686;2022-07-29T12:51:28;101779.44;;;27.76;36.66
59337;BME280;45115;52.002;4.686;2022-07-29T12:54:08;101773.09;;;27.49;36.85
59337;BME280;45115;52.002;4.686;2022-07-29T12:56:35;101773.34;;;27.59;37.63
59337;BME280;45115;52.002;4.686;2022-07-29T12:59:11;101770.41;;;26.89;39.74
59337;BME280;45115;52.002;4.686;2022-07-29T13:01:38;101769.69;;;26.73;37.54